Weather observations for the past three days for
Music City Executive Airport
Metric (Imperial)
Date Time (cdt) Wind (kph) Vis. (km) Weather Sky Cond. Temperature (ºC) Relative Humidity Wind Chill (°C) Heat Index (°C) Pressure Precipitation (cm)
Air Dwpt 6 hour altimeter (cm) sea level (mb) 1 hr 3 hr 6 hr
Max. Min.
04 00:35 Calm 16.09 Fair CLR 9 7 87% 76.25 0.0
04 00:10 Calm 16.09 Fair CLR 10 6 76% 76.28 0.0
03 23:50 Calm 16.09 Fair CLR 11 6 72% 76.25 0.0
03 23:30 Calm 16.09 Fair CLR 11 6 72% 76.25 0.0
03 23:10 Calm 16.09 Fair CLR 13 5 59% 76.25 0.0
03 22:50 S 7 16.09 Fair CLR 13 5 59% 76.23 0.0
03 22:35 Calm 16.09 Fair CLR 13 5 59% 76.25 0.0
03 22:15 S 9 16.09 Fair CLR 10 7 82% 9 76.25 0.0
03 21:50 Calm 16.09 Fair CLR 12 7 72% 76.28 0.0
03 21:35 Calm 16.09 Fair CLR 12 6 67% 76.28 0.0
03 21:15 Calm 16.09 Fair CLR 13 5 59% 76.28 0.0
03 20:55 Calm 16.09 Fair CLR 14 4 51% 76.25 0.0
03 20:35 Calm 16.09 Fair CLR 15 5 51% 76.25 0.0
03 20:10 Calm 16.09 Fair CLR 16 3 42% 76.23 0.0
03 19:55 Calm 16.09 Fair CLR 17 2 37% 76.2 0.0
03 19:35 Calm 16.09 Fair CLR 17 2 37% 76.2 0.0
03 19:15 Calm 16.09 Fair CLR 18 2 34% 76.23 0.0
03 18:50 Vrbl 9 16.09 Fair CLR 19 2 32% 76.25 0.0
03 18:35 Vrbl 6 G 24 16.09 Fair CLR 19 1 30% 76.25 0.0
03 18:10 SW 9 16.09 Fair CLR 20 1 28% 76.28 0.0
03 17:50 Vrbl 11 G 22 16.09 Fair CLR 20 1 28% 76.3 0.0
03 17:30 Vrbl 11 G 20 16.09 Fair CLR 20 0 26% 76.3 0.0
03 17:10 S 17 G 30 16.09 Fair CLR 20 1 28% 76.33 0.0
03 16:50 SW 13 16.09 Fair CLR 20 1 28% 76.35 0.0
03 16:35 Vrbl 7 G 24 16.09 Fair CLR 20 0 26% 76.38 0.0
03 16:15 Vrbl 11 16.09 Fair CLR 20 0 26% 76.4 0.0
03 15:55 Vrbl 6 G 19 16.09 Fair CLR 20 1 28% 76.43 0.0
03 15:30 S 13 16.09 Fair CLR 20 0 26% 76.45 0.0
03 15:15 SW 15 G 26 16.09 Fair CLR 20 0 26% 76.48 0.0
03 14:50 SW 17 16.09 Fair CLR 20 0 26% 76.53 0.0
03 14:35 Vrbl 9 16.09 Fair CLR 20 0 26% 76.53 0.0
03 14:15 Vrbl 11 16.09 Fair CLR 19 0 28% 76.56 0.0
03 13:50 Calm 16.09 Fair CLR 19 0 28% 76.58 0.0
03 13:35 Vrbl 6 16.09 Fair CLR 18 0 30% 76.61 0.0
03 13:15 Calm 16.09 Fair CLR 18 0 30% 76.61 0.0
03 12:55 Vrbl 11 16.09 Fair CLR 18 0 30% 76.63 0.0
03 12:30 Vrbl 7 16.09 Fair CLR 17 -1 30% 76.66 0.0
03 12:10 Vrbl 9 16.09 Fair CLR 16 -1 31% 76.68 0.0
03 11:50 Calm 16.09 Fair CLR 16 -2 29% 76.71 0.0
03 11:30 SE 13 16.09 Fair CLR 15 -2 31% 76.73 0.0
03 11:10 Vrbl 7 16.09 Fair CLR 15 -1 34% 76.73 0.0
03 10:55 Calm 16.09 Fair CLR 15 -1 34% 76.76 0.0
03 10:30 E 7 16.09 Fair CLR 14 1 41% 76.76 0.0
03 10:15 Vrbl 6 16.09 Fair CLR 13 5 59% 76.76 0.0
03 09:55 Calm 16.09 Fair CLR 12 6 67% 76.76 0.0
03 09:35 Calm 16.09 Fair CLR 11 7 77% 76.76 0.0
03 09:15 Calm 16.09 Fair CLR 10 7 82% 76.76 0.0
03 08:55 Vrbl 6 16.09 Fair CLR 9 8 94% 76.76 0.0
03 08:35 Vrbl 7 16.09 Fair CLR 8 8 100% 7 76.76 0.0
03 08:15 S 7 16.09 Fair CLR 8 8 100% 7 76.76 0.0
03 07:55 Calm 16.09 Fair CLR 7 7 100% 76.76 0.0
03 07:35 Calm 12.87 Fair CLR 6 6 100% 76.73 0.0
03 07:15 Calm 8.05 Fog/Mist CLR 5 5 100% 76.73 0.0
03 06:55 Calm 4.83 Fog/Mist FEW001 4 4 100% 76.71 0.0
03 06:30 Calm 0.24 Fog OVC002 3 3 100% 76.68 0.0
03 06:10 Calm 0.24 Fog OVC002 3 3 100% 76.68 0.0
03 05:55 Calm 0.24 Fog OVC001 3 3 100% 76.66 0.0
03 05:35 Calm 0.24 Fog OVC001 3 3 100% 76.63 0.0
03 05:10 Calm 0.40 Fog BKN001 3 3 100% 76.63 0.0
03 04:55 Calm 1.61 Fog/Mist SCT002 3 3 100% 76.63 0.0
03 04:30 Calm 1.21 Fog/Mist VV005 3 3 100% 76.63 0.0
03 04:15 Calm 4.83 Fog/Mist CLR 3 3 100% 76.63 0.0
03 03:55 Calm 16.09 Fair CLR 4 4 100% 76.63 0.0
03 03:35 Calm 16.09 Fair CLR 4 4 100% 76.63 0.0
03 03:15 Calm 16.09 Fair CLR 4 4 100% 76.61 0.0
03 02:55 Calm 16.09 A Few Clouds FEW050 4 4 100% 76.61 0.0
03 02:35 Calm 16.09 A Few Clouds FEW050 FEW060 5 4 93% 76.61 0.0
03 02:15 Calm 16.09 Partly Cloudy SCT050 SCT060 5 5 100% 76.61 0.0
03 01:55 Calm 16.09 Partly Cloudy SCT050 SCT060 5 5 100% 76.61 0.0
03 01:35 Calm 14.48 Partly Cloudy SCT050 SCT060 5 5 100% 76.61 0.0
03 01:10 Calm 16.09 Mostly Cloudy BKN050 6 6 100% 76.61 0.0
03 00:55 Calm 16.09 Partly Cloudy SCT050 6 6 100% 76.61 0.0
03 00:30 Calm 16.09 A Few Clouds FEW050 6 6 100% 76.58 0.0
03 00:15 Calm 16.09 A Few Clouds FEW050 6 6 100% 76.61 0.0
02 23:50 Calm 16.09 Fair CLR 7 7 100% 76.58 0.0
02 23:30 Calm 16.09 A Few Clouds FEW046 FEW050 7 7 100% 76.58 0.0
02 23:15 Calm 16.09 A Few Clouds FEW050 7 6 93% 76.56 0.0
02 22:50 Calm 16.09 A Few Clouds FEW050 7 6 93% 76.56 0.0
02 22:35 Calm 16.09 Fair CLR 7 7 100% 76.56 0.0
02 22:15 Calm 16.09 Fair CLR 7 7 100% 76.56 0.0
02 21:50 Calm 16.09 Mostly Cloudy BKN048 BKN055 8 8 100% 76.56 0.0
02 21:35 Calm 16.09 Mostly Cloudy SCT047 BKN055 9 8 94% 76.53 0.0
02 21:15 Calm 16.09 Mostly Cloudy BKN050 9 8 94% 76.53 0.0
02 20:50 Calm 16.09 Mostly Cloudy BKN050 BKN055 9 8 94% 76.53 0.0
02 20:35 Calm 16.09 Partly Cloudy SCT055 9 8 94% 76.5 0.0
02 20:10 Calm 16.09 Fair CLR 9 8 94% 76.48 0.0
02 19:50 Calm 16.09 Fair CLR 10 7 82% 76.48 0.0
02 19:35 N 9 16.09 Fair CLR 10 8 88% 9 76.45 0.0
02 19:15 N 13 16.09 Fair CLR 11 7 77% 76.43 0.0
02 18:55 N 17 G 30 16.09 Fair CLR 11 7 77% 76.4 0.0
02 18:35 N 20 G 39 16.09 Partly Cloudy SCT110 12 6 67% 76.4 0.0
02 18:15 N 33 16.09 Mostly Cloudy and Breezy FEW047 SCT075 BKN110 12 8 77% 76.4 0.0
02 17:55 NW 24 G 35 16.09 Mostly Cloudy FEW050 SCT060 BKN070 12 7 72% 76.4 0.0
02 17:30 NW 17 G 31 16.09 Mostly Cloudy FEW048 SCT075 BKN110 13 7 67% 76.35 0.0
02 17:15 N 24 G 33 16.09 Mostly Cloudy FEW048 BKN065 BKN080 13 9 77% 76.3 0.0
02 16:55 NW 22 G 33 16.09 Overcast BKN065 BKN080 OVC090 17 2 37% 76.28 0.0
02 16:30 Calm 16.09 Mostly Cloudy SCT070 BKN085 17 1 34% 76.23 0.0
02 16:10 Calm 16.09 Overcast BKN070 BKN080 OVC110 17 1 34% 76.23 0.0
02 15:55 NW 13 16.09 Mostly Cloudy FEW070 BKN085 BKN120 17 1 34% 76.23 0.0
02 15:30 NW 20 16.09 Partly Cloudy SCT070 SCT085 SCT100 18 1 32% 76.25 0.0
02 15:15 NW 15 16.09 Mostly Cloudy SCT070 BKN085 18 1 32% 76.25 0.0
02 14:55 Vrbl 6 G 19 16.09 Partly Cloudy FEW070 SCT100 18 0 30% 76.28 0.0
02 14:30 Vrbl 11 16.09 Mostly Cloudy FEW070 SCT075 BKN100 18 0 30% 76.28 0.0
02 14:10 NW 15 G 30 16.09 A Few Clouds FEW070 FEW080 FEW095 18 0 30% 76.3 0.0
02 13:50 N 17 G 31 16.09 Mostly Cloudy BKN070 BKN090 18 0 30% 76.33 0.0
02 13:35 Vrbl 11 G 33 16.09 Mostly Cloudy BKN070 BKN085 19 1 30% 76.33 0.0
02 13:10 W 13 16.09 Partly Cloudy FEW065 FEW075 SCT085 18 1 32% 76.33 0.0
02 12:55 Vrbl 9 G 26 16.09 Mostly Cloudy SCT070 BKN080 17 1 34% 76.35 0.0
02 12:35 N 13 G 22 16.09 A Few Clouds FEW080 18 0 30% 76.35 0.0
02 12:15 Vrbl 7 G 22 16.09 A Few Clouds FEW065 19 1 30% 76.35 0.0
02 11:55 Vrbl 7 G 19 16.09 A Few Clouds FEW065 17 0 32% 76.38 0.0
02 11:35 N 15 16.09 Fair CLR 18 0 30% 76.38 0.0
02 11:15 Vrbl 9 16.09 Fair CLR 17 0 32% 76.4 0.0
02 10:55 NW 11 16.09 Fair CLR 16 1 36% 76.4 0.0
02 10:35 Calm 16.09 Fair CLR 16 1 36% 76.4 0.0
02 10:15 Vrbl 7 G 20 16.09 Fair CLR 16 1 36% 76.4 0.0
02 09:55 Calm 16.09 Fair CLR 15 2 42% 76.4 0.0
02 09:35 Vrbl 9 16.09 Fair CLR 14 2 44% 76.4 0.0
02 09:15 NE 6 16.09 Fair CLR 14 3 48% 76.4 0.0
02 08:55 Vrbl 9 16.09 Fair CLR 14 1 41% 76.4 0.0
02 08:35 E 9 16.09 Fair CLR 13 3 51% 76.4 0.0
02 08:15 Calm 16.09 Fair CLR 12 4 58% 76.4 0.0
02 07:55 Calm 16.09 Fair CLR 11 4 62% 76.4 0.0
02 07:35 NE 7 16.09 Fair CLR 10 4 67% 9 76.4 0.0
02 07:15 N 7 16.09 Fair CLR 9 4 71% 8 76.38 0.0
02 06:55 N 6 16.09 Fair CLR 9 4 71% 76.38 0.0
02 06:35 Calm 16.09 Fair CLR 8 4 76% 76.33 0.0
02 06:15 Calm 16.09 Fair CLR 7 3 76% 76.35 0.0
02 05:55 N 6 16.09 Fair CLR 7 3 76% 76.35 0.0
02 05:35 Calm 16.09 Fair CLR 7 3 76% 76.33 0.0
02 05:15 N 6 16.09 Fair CLR 8 3 71% 76.33 0.0
02 04:55 N 6 16.09 Fair CLR 8 3 71% 76.3 0.0
02 04:35 N 7 16.09 Fair CLR 8 3 71% 7 76.3 0.0
02 04:15 N 9 16.09 Fair CLR 9 3 66% 8 76.33 0.0
02 03:55 N 11 16.09 Fair CLR 9 3 66% 8 76.3 0.0
02 03:35 N 9 16.09 Fair CLR 9 3 66% 8 76.3 0.0
02 03:15 N 9 16.09 Fair CLR 9 2 62% 8 76.3 0.0
02 02:55 N 7 16.09 Fair CLR 10 2 58% 9 76.33 0.0
02 02:35 NE 9 16.09 Fair CLR 10 2 58% 9 76.33 0.0
02 02:15 N 7 16.09 Fair CLR 10 2 58% 9 76.35 0.0
02 01:55 N 11 16.09 Fair CLR 10 2 58% 9 76.33 0.0
02 01:35 N 11 16.09 Fair CLR 10 2 58% 9 76.35 0.0
02 01:15 N 11 16.09 Fair CLR 10 1 54% 9 76.38 0.0
02 00:55 N 11 16.09 Fair CLR 10 1 54% 9 76.38 0.0
02 00:35 N 13 16.09 Fair CLR 10 1 54% 8 76.35 0.0
02 00:15 N 13 16.09 Fair CLR 10 1 54% 8 76.33 0.0
01 23:55 N 13 16.09 Fair CLR 11 2 54% 76.33 0.0
01 23:35 N 15 16.09 A Few Clouds FEW055 11 2 54% 76.35 0.0
01 23:15 N 17 16.09 Partly Cloudy SCT055 12 2 51% 76.35 0.0
01 22:55 N 15 16.09 A Few Clouds FEW055 13 1 44% 76.35 0.0
01 22:35 NW 11 16.09 A Few Clouds FEW050 13 1 44% 76.38 0.0
01 22:15 NW 13 G 22 16.09 Partly Cloudy SCT055 13 1 44% 76.4 0.0
01 21:55 NW 9 16.09 A Few Clouds FEW055 13 1 44% 76.38 0.0
01 21:35 NW 11 16.09 A Few Clouds FEW060 13 1 44% 76.38 0.0
01 21:15 NW 11 16.09 Fair CLR 13 1 44% 76.38 0.0
01 20:55 NW 13 16.09 A Few Clouds FEW050 14 1 41% 76.35 0.0
01 20:35 NW 11 16.09 Partly Cloudy SCT050 14 1 41% 76.33 0.0
01 20:15 NW 11 16.09 A Few Clouds FEW050 14 1 41% 76.33 0.0
01 19:55 NW 9 16.09 Fair CLR 14 0 39% 76.3 0.0
01 19:35 N 13 16.09 Fair CLR 15 -1 34% 76.25 0.0
01 19:15 NW 9 16.09 Fair CLR 15 0 36% 76.23 0.0
01 18:55 NW 11 16.09 Fair CLR 16 -2 29% 76.2 0.0
01 18:35 NW 15 16.09 Fair CLR 16 -3 27% 76.17 0.0
01 18:15 N 13 16.09 Fair CLR 17 -3 25% 76.17 0.0
01 17:55 N 22 16.09 Fair CLR 17 -3 25% 76.15 0.0
01 17:35 NW 17 16.09 Fair CLR 17 -3 25% 76.15 0.0
01 17:15 NW 15 G 28 16.09 Fair CLR 17 -4 24% 76.15 0.0
01 16:55 NW 15 G 28 16.09 Fair CLR 18 -2 26% 76.15 0.0
01 16:35 NW 17 16.09 Fair CLR 18 -1 28% 76.15 0.0
01 16:15 NW 17 G 31 16.09 Fair CLR 18 -2 26% 76.15 0.0
01 15:55 NW 17 16.09 Fair CLR 18 -2 26% 76.17 0.0
01 15:35 NW 17 G 31 16.09 Fair CLR 18 1 32% 76.2 0.0
01 15:15 W 15 G 33 16.09 A Few Clouds FEW060 19 2 32% 76.2 0.0
01 14:55 Vrbl 11 G 26 16.09 A Few Clouds FEW055 19 4 37% 76.23 0.0
01 14:35 W 13 G 24 16.09 Fair CLR 19 4 37% 76.25 0.0
01 14:15 Vrbl 9 G 33 16.09 A Few Clouds FEW055 19 4 37% 76.25 0.0
01 13:55 Vrbl 9 G 28 16.09 Fair CLR 19 4 37% 76.25 0.0
01 13:35 W 13 G 28 16.09 Fair CLR 19 3 35% 76.25 0.0
01 13:15 NW 13 G 30 16.09 A Few Clouds FEW049 19 4 37% 76.25 0.0
01 12:55 NW 19 G 30 16.09 Partly Cloudy SCT048 18 6 46% 76.25 0.0
01 12:35 NW 13 16.09 A Few Clouds FEW043 19 7 46% 76.28 0.0
01 12:15 NW 13 G 28 16.09 Partly Cloudy SCT043 19 7 46% 76.28 0.0
01 11:55 Vrbl 9 G 30 16.09 A Few Clouds FEW041 19 7 46% 76.28 0.0
01 11:35 W 15 G 26 16.09 Fair CLR 19 6 43% 76.28 0.0
01 11:15 Vrbl 9 G 20 16.09 Fair CLR 19 5 40% 76.28 0.0
01 10:55 NW 15 G 28 16.09 Fair CLR 18 5 43% 76.28 0.0
01 10:35 Vrbl 11 G 22 16.09 Fair CLR 19 4 37% 76.28 0.0
01 10:15 Vrbl 11 16.09 Fair CLR 18 4 40% 76.28 0.0
01 09:55 Vrbl 7 16.09 Fair CLR 18 5 43% 76.25 0.0
01 09:35 Vrbl 9 16.09 Fair CLR 16 7 55% 76.28 0.0
01 09:15 Vrbl 7 16.09 Fair CLR 16 9 63% 76.28 0.0
01 08:55 Calm 16.09 Fair CLR 15 8 63% 76.28 0.0
01 08:35 Calm 16.09 Fair CLR 14 8 67% 76.25 0.0
01 08:15 Calm 16.09 Fair CLR 12 9 82% 76.28 0.0
01 07:55 Calm 16.09 Fair CLR 12 9 82% 76.28 0.0
01 07:35 Calm 16.09 Fair CLR 10 8 88% 76.28 0.0
01 07:15 Calm 16.09 Fair CLR 9 7 87% 76.25 0.0
01 06:55 Calm 16.09 Fair CLR 8 7 93% 76.25 0.0
01 06:35 Calm 16.09 Fair CLR 7 6 93% 76.23 0.0
01 05:55 Calm 16.09 Fair CLR 5 5 100% 76.17 0.0
01 05:35 Calm 16.09 Fair CLR 6 6 100% 76.17 0.0
01 05:05 Calm 16.09 Fair CLR 6 5 93% 76.17 0.0
01 04:50 Calm 16.09 Fair CLR 6 6 100% 76.17 0.0
01 04:35 Calm 16.09 Fair CLR 6 6 100% 76.17 0.0
01 04:15 Calm 16.09 Fair CLR 7 6 93% 76.2 0.0
01 03:55 Calm 16.09 Fair CLR 7 6 93% 76.2 0.0
01 03:35 Calm 16.09 Fair CLR 7 6 93% 76.2 0.0
01 03:15 Calm 16.09 Fair CLR 7 7 100% 76.17 0.0
01 02:55 Calm 16.09 Fair CLR 7 7 100% 76.2 0.0
01 02:35 Calm 16.09 A Few Clouds FEW110 7 7 100% 76.2 0.0
01 02:15 Calm 16.09 A Few Clouds FEW120 7 7 100% 76.23 0.0
01 01:55 Calm 16.09 Fair CLR 8 7 93% 76.25 0.0
01 01:35 Calm 16.09 Fair CLR 8 7 93% 76.25 0.0
01 01:15 Calm 16.09 Fair CLR 8 8 100% 76.25 0.0
Date Time (cdt) Wind (kph) Vis. (km) Weather Sky Cond. Air Dwpt Max. Min. Relative Humidity Wind Chill (°C) Heat Index (°C) altimeter (cm) sea level (mb) 1 hr 3 hr 6 hr
6 hour
Temperature (ºC) Pressure Precipitation (cm)